Time;durP1;ratioP1;P1;durP2;ratioP2;P2;SDS_P1;SDS_P2;PMS_P1;PMS_P2;Temp;Humidity;BMP_temperature;BMP_pressure;BME280_temperature;BME280_humidity;BME280_pressure;Samples;Min_cycle;Max_cycle;Signal;HPM_P1;HPM_P2
2022/03/09 00:01:23;;;;;;;10.43;6.07;;;5.70;41.10;;;;;;5013146;28;20042;-74
2022/03/09 00:03:49;;;;;;;10.98;5.90;;;5.60;40.90;;;;;;5014185;28;20120;-73
2022/03/09 00:06:15;;;;;;;9.40;5.65;;;5.60;41.70;;;;;;5014447;28;20383;-77
2022/03/09 00:08:40;;;;;;;9.82;5.90;;;5.60;41.00;;;;;;5014393;28;20080;-73
2022/03/09 00:11:06;;;;;;;11.88;6.15;;;5.50;41.80;;;;;;5014097;28;20028;-75
2022/03/09 00:13:32;;;;;;;10.98;5.95;;;5.50;42.10;;;;;;5014497;28;20049;-74
2022/03/09 00:15:57;;;;;;;10.10;5.72;;;5.50;42.20;;;;;;5013746;28;20032;-76
2022/03/09 00:18:43;;;;;;;9.20;5.45;;;5.50;42.20;;;;;;5015242;28;20026;-74
2022/03/09 00:21:10;;;;;;;10.15;6.60;;;5.50;42.20;;;;;;5016515;28;20026;-77
2022/03/09 00:23:35;;;;;;;10.73;5.72;;;5.50;42.20;;;;;;4998264;28;20076;-74
2022/03/09 00:26:01;;;;;;;10.85;6.30;;;5.50;42.10;;;;;;5013786;28;20427;-72
2022/03/09 00:28:27;;;;;;;11.73;6.32;;;5.40;42.60;;;;;;5013774;28;20479;-77
2022/03/09 00:30:52;;;;;;;16.20;6.30;;;5.50;42.40;;;;;;5013731;28;20060;-76
2022/03/09 00:33:18;;;;;;;10.85;6.38;;;5.50;42.40;;;;;;5013547;28;20467;-75
2022/03/09 00:35:44;;;;;;;9.23;5.85;;;5.50;42.50;;;;;;5013873;28;20030;-75
2022/03/09 00:38:11;;;;;;;11.30;6.00;;;5.50;42.60;;;;;;5013560;28;20022;-74
2022/03/09 00:40:37;;;;;;;9.35;6.13;;;5.50;42.80;;;;;;5013119;28;20058;-76
2022/03/09 00:43:03;;;;;;;8.88;6.05;;;5.50;42.40;;;;;;5013364;28;20050;-72
2022/03/09 00:45:29;;;;;;;8.98;5.95;;;5.50;42.80;;;;;;5013175;28;20066;-71
2022/03/09 00:47:54;;;;;;;9.85;6.05;;;5.50;42.80;;;;;;5013198;28;20029;-72
2022/03/09 00:50:20;;;;;;;8.98;6.38;;;5.50;43.20;;;;;;5013294;28;20456;-74
2022/03/09 00:52:47;;;;;;;9.13;6.18;;;5.50;42.90;;;;;;5013357;28;20022;-76
2022/03/09 00:55:13;;;;;;;10.75;6.53;;;5.50;42.90;;;;;;5013309;28;20105;-72
2022/03/09 00:57:39;;;;;;;9.25;5.68;;;5.50;43.20;;;;;;5013024;28;20022;-73
2022/03/09 01:00:06;;;;;;;9.88;5.85;;;5.50;43.50;;;;;;5013059;28;20467;-75
2022/03/09 01:02:32;;;;;;;10.10;5.95;;;5.40;43.40;;;;;;5012936;28;20072;-73
2022/03/09 01:04:58;;;;;;;10.90;6.25;;;5.40;43.40;;;;;;5013112;28;20038;-72
2022/03/09 01:07:23;;;;;;;11.02;6.47;;;5.30;43.60;;;;;;5012946;28;20133;-72
2022/03/09 01:09:49;;;;;;;10.55;6.63;;;5.30;43.40;;;;;;5012664;28;20084;-72
2022/03/09 01:12:15;;;;;;;10.48;6.22;;;5.30;44.20;;;;;;5012827;28;20030;-72
2022/03/09 01:14:40;;;;;;;10.52;5.90;;;5.30;44.40;;;;;;5012905;28;20383;-71
2022/03/09 01:17:06;;;;;;;9.30;6.15;;;5.40;44.20;;;;;;5012896;28;20025;-73
2022/03/09 01:19:32;;;;;;;10.40;6.35;;;5.40;44.20;;;;;;5012837;28;20164;-71
2022/03/09 01:21:57;;;;;;;10.65;6.60;;;5.30;44.40;;;;;;5012756;28;20029;-72
2022/03/09 01:24:23;;;;;;;10.48;6.35;;;5.30;44.80;;;;;;5012693;28;20073;-75
2022/03/09 01:26:49;;;;;;;11.05;5.82;;;5.30;44.60;;;;;;5012592;28;20050;-73
2022/03/09 01:29:14;;;;;;;8.63;5.78;;;5.30;44.70;;;;;;5012898;28;20080;-76
2022/03/09 01:31:40;;;;;;;8.88;5.95;;;5.20;44.90;;;;;;5012846;28;20025;-72
2022/03/09 01:34:06;;;;;;;8.80;5.85;;;5.30;45.40;;;;;;5013048;28;20026;-74
2022/03/09 01:36:31;;;;;;;11.50;6.70;;;5.20;45.10;;;;;;5015266;28;20026;-74
2022/03/09 01:38:57;;;;;;;12.90;6.03;;;5.30;46.20;;;;;;5015395;28;20014;-76
2022/03/09 01:41:23;;;;;;;8.43;5.68;;;5.20;45.40;;;;;;5012920;28;20034;-75
2022/03/09 01:44:24;;;;;;;9.95;6.68;;;5.20;46.00;;;;;;5012753;28;20041;-77
2022/03/09 01:46:52;;;;;;;10.40;5.95;;;5.10;46.20;;;;;;4915262;29;20519;-76
2022/03/09 01:49:20;;;;;;;9.02;5.90;;;5.10;45.80;;;;;;4993888;28;20037;-74
2022/03/09 01:51:48;;;;;;;8.48;5.78;;;5.00;46.10;;;;;;5012959;28;20022;-71
2022/03/09 01:54:14;;;;;;;10.13;5.95;;;5.10;46.10;;;;;;5016176;28;20030;-72
2022/03/09 01:56:41;;;;;;;12.00;6.20;;;5.10;46.30;;;;;;5015849;28;20113;-73
2022/03/09 01:59:09;;;;;;;9.00;6.03;;;5.20;46.30;;;;;;5015391;28;20018;-70
2022/03/09 02:01:36;;;;;;;9.32;5.70;;;5.10;46.00;;;;;;5012818;28;20037;-70
2022/03/09 02:04:03;;;;;;;9.82;5.93;;;5.10;45.80;;;;;;5012536;28;20048;-72
2022/03/09 02:06:32;;;;;;;10.25;6.35;;;5.10;46.00;;;;;;5012603;28;20025;-71
2022/03/09 02:11:42;;;;;;;11.43;5.82;;;5.10;46.30;;;;;;5012800;28;20068;-72
2022/03/09 02:14:49;;;;;;;9.30;6.35;;;5.10;46.00;;;;;;5012593;28;20026;-75
2022/03/09 02:17:21;;;;;;;9.88;6.20;;;5.20;46.20;;;;;;4913982;29;20034;-74
2022/03/09 02:19:49;;;;;;;9.45;5.90;;;5.20;46.40;;;;;;4914104;29;20036;-74
2022/03/09 02:22:35;;;;;;;10.32;6.50;;;5.20;46.20;;;;;;4967270;28;20053;-75
2022/03/09 02:25:06;;;;;;;12.50;6.72;;;5.10;46.00;;;;;;5012585;28;20057;-73
2022/03/09 02:27:32;;;;;;;10.13;6.75;;;5.10;46.00;;;;;;5012389;28;20019;-74
2022/03/09 02:29:58;;;;;;;11.77;6.75;;;5.10;46.20;;;;;;5012141;28;20025;-75
2022/03/09 02:32:23;;;;;;;11.32;7.03;;;5.10;46.30;;;;;;5012445;28;20475;-72
2022/03/09 02:34:50;;;;;;;10.82;6.90;;;5.00;46.70;;;;;;5012490;28;20034;-74
2022/03/09 02:37:17;;;;;;;9.95;6.43;;;5.10;47.00;;;;;;5012292;28;20117;-73
2022/03/09 02:39:43;;;;;;;9.98;6.32;;;5.00;46.70;;;;;;5014681;28;20068;-73
2022/03/09 02:42:09;;;;;;;12.50;7.15;;;5.00;47.00;;;;;;5015804;28;20022;-74
2022/03/09 02:44:35;;;;;;;10.43;7.00;;;5.00;46.90;;;;;;5015734;28;20069;-73
2022/03/09 02:47:01;;;;;;;9.80;6.28;;;4.90;46.50;;;;;;5015936;28;20156;-73
2022/03/09 02:49:27;;;;;;;11.10;7.40;;;5.00;46.90;;;;;;5015644;28;20105;-74
2022/03/09 02:51:52;;;;;;;12.50;6.72;;;5.00;47.30;;;;;;5015631;28;20065;-71
2022/03/09 02:54:18;;;;;;;9.90;6.68;;;5.00;47.10;;;;;;5015568;28;20037;-73
2022/03/09 02:56:44;;;;;;;11.82;6.28;;;5.00;47.40;;;;;;5015424;28;20159;-76
2022/03/09 02:59:11;;;;;;;10.65;7.03;;;4.90;47.50;;;;;;5015651;28;20127;-74
2022/03/09 03:01:37;;;;;;;11.23;6.95;;;4.90;47.50;;;;;;5015923;28;20022;-74
2022/03/09 03:04:03;;;;;;;10.02;6.90;;;4.90;47.20;;;;;;5015566;28;20034;-74
2022/03/09 03:06:29;;;;;;;10.98;6.93;;;4.90;47.50;;;;;;5015484;28;20101;-71
2022/03/09 03:08:54;;;;;;;10.27;6.93;;;4.90;46.90;;;;;;5015401;28;20061;-74
2022/03/09 03:11:20;;;;;;;12.13;7.20;;;4.90;47.50;;;;;;4997664;28;20029;-75
2022/03/09 03:13:48;;;;;;;11.65;7.22;;;4.90;48.00;;;;;;4997142;28;20030;-72
2022/03/09 03:16:15;;;;;;;15.95;6.75;;;4.80;47.40;;;;;;5015134;28;20450;-74
2022/03/09 03:18:40;;;;;;;10.15;6.60;;;4.80;47.40;;;;;;4997317;28;20391;-73
2022/03/09 03:21:06;;;;;;;11.50;6.60;;;4.80;47.70;;;;;;5014823;28;20018;-75
2022/03/09 03:23:33;;;;;;;10.85;7.40;;;4.80;47.70;;;;;;4997352;28;20029;-75
2022/03/09 03:26:00;;;;;;;11.35;7.00;;;4.70;47.70;;;;;;5015221;28;20022;-75
2022/03/09 03:28:25;;;;;;;10.80;6.65;;;4.70;47.60;;;;;;5014811;28;20091;-72
2022/03/09 03:30:52;;;;;;;11.50;7.10;;;4.80;47.70;;;;;;5014817;28;20468;-73
2022/03/09 03:33:19;;;;;;;10.15;6.18;;;4.80;47.80;;;;;;5014902;28;20018;-75
2022/03/09 03:35:46;;;;;;;13.02;6.20;;;4.80;47.80;;;;;;5014934;28;20164;-76
2022/03/09 03:38:12;;;;;;;12.50;7.13;;;4.80;47.60;;;;;;5014775;28;20415;-75
2022/03/09 03:40:38;;;;;;;9.85;5.93;;;4.80;47.90;;;;;;5014742;28;20141;-72
2022/03/09 03:43:05;;;;;;;10.90;6.65;;;4.80;47.50;;;;;;5014480;28;20034;-71
2022/03/09 03:45:31;;;;;;;10.98;6.97;;;4.70;47.40;;;;;;5014687;28;20034;-71
2022/03/09 03:47:57;;;;;;;12.15;7.03;;;4.80;47.80;;;;;;5014499;28;20040;-75
2022/03/09 03:50:23;;;;;;;11.25;6.45;;;4.80;47.70;;;;;;4996709;28;20561;-72
2022/03/09 03:52:49;;;;;;;10.38;6.65;;;4.80;47.70;;;;;;5014451;28;20387;-71
2022/03/09 03:55:15;;;;;;;12.15;6.68;;;4.80;47.70;;;;;;5014388;28;20030;-71
2022/03/09 03:57:41;;;;;;;10.25;7.22;;;4.80;47.80;;;;;;5014437;28;20022;-73
2022/03/09 04:00:10;;;;;;;10.43;6.28;;;4.70;47.90;;;;;;5014235;28;20026;-72
2022/03/09 04:02:36;;;;;;;12.43;6.65;;;4.70;47.70;;;;;;5014242;28;20497;-73
2022/03/09 04:05:02;;;;;;;12.27;6.63;;;4.60;47.60;;;;;;5014338;28;20030;-72
2022/03/09 04:07:29;;;;;;;10.32;6.32;;;4.60;47.90;;;;;;5014351;28;20029;-72
2022/03/09 04:09:54;;;;;;;12.43;7.05;;;4.60;49.10;;;;;;5014502;28;20172;-71
2022/03/09 04:12:20;;;;;;;10.50;6.20;;;4.60;47.80;;;;;;5014574;28;20494;-71
2022/03/09 04:14:46;;;;;;;12.23;6.10;;;4.60;48.30;;;;;;5014481;28;20387;-73
2022/03/09 04:17:12;;;;;;;10.35;6.32;;;4.50;48.00;;;;;;4996564;28;20030;-71
2022/03/09 04:19:37;;;;;;;19.58;8.40;;;4.50;48.20;;;;;;5013963;28;20041;-70
2022/03/09 04:22:04;;;;;;;13.02;7.20;;;4.40;48.20;;;;;;5014079;28;20527;-70
2022/03/09 04:24:29;;;;;;;11.93;6.97;;;4.50;48.30;;;;;;5013850;28;20040;-71
2022/03/09 04:26:55;;;;;;;11.88;6.40;;;4.50;48.30;;;;;;5014118;28;20026;-70
2022/03/09 04:29:21;;;;;;;11.38;6.55;;;4.50;48.10;;;;;;5013712;28;20049;-70
2022/03/09 04:31:46;;;;;;;12.70;7.20;;;4.60;48.10;;;;;;5013730;28;20088;-70
2022/03/09 04:34:12;;;;;;;12.30;7.22;;;4.60;48.10;;;;;;5014167;28;20036;-71
2022/03/09 04:36:38;;;;;;;9.52;6.55;;;4.60;48.00;;;;;;5013731;28;20102;-72
2022/03/09 04:39:05;;;;;;;9.82;6.88;;;4.60;48.10;;;;;;5013301;28;20379;-71
2022/03/09 04:41:30;;;;;;;12.93;7.10;;;4.60;48.00;;;;;;5013753;28;20033;-72
2022/03/09 04:43:56;;;;;;;9.00;6.35;;;4.60;48.20;;;;;;5013657;28;20034;-71
2022/03/09 04:46:22;;;;;;;15.00;7.20;;;4.50;48.30;;;;;;5013391;28;20029;-72
2022/03/09 04:48:49;;;;;;;10.65;7.30;;;4.50;47.90;;;;;;5013316;28;20506;-72
2022/03/09 04:51:16;;;;;;;10.63;6.60;;;4.50;48.30;;;;;;5013067;28;20501;-72
2022/03/09 04:53:43;;;;;;;13.45;7.00;;;4.50;48.30;;;;;;5013213;28;20033;-72
2022/03/09 04:56:08;;;;;;;11.48;6.35;;;4.50;48.20;;;;;;5013282;28;20109;-71
2022/03/09 04:58:34;;;;;;;11.40;6.60;;;4.60;48.30;;;;;;5013193;28;20026;-70
2022/03/09 05:01:00;;;;;;;11.55;6.95;;;4.50;48.70;;;;;;5012663;28;20116;-76
2022/03/09 05:03:26;;;;;;;9.60;7.13;;;4.50;48.80;;;;;;5013194;28;20030;-72
2022/03/09 05:05:51;;;;;;;9.43;6.05;;;4.50;48.70;;;;;;5013243;28;20037;-71
2022/03/09 05:08:17;;;;;;;10.85;6.63;;;4.50;48.80;;;;;;5013135;28;20040;-74
2022/03/09 05:10:43;;;;;;;10.75;6.22;;;4.60;49.10;;;;;;5013213;28;20495;-73
2022/03/09 05:13:09;;;;;;;10.10;6.13;;;4.50;48.90;;;;;;5013201;28;20030;-71
2022/03/09 05:15:35;;;;;;;10.13;6.47;;;4.60;49.10;;;;;;5012781;28;20083;-74
2022/03/09 05:18:01;;;;;;;12.18;6.72;;;4.50;48.90;;;;;;5012632;28;20037;-76
2022/03/09 05:20:26;;;;;;;11.02;6.25;;;4.50;48.60;;;;;;5012688;28;20391;-73
2022/03/09 05:22:52;;;;;;;11.85;6.97;;;4.50;49.20;;;;;;5012327;28;20033;-76
2022/03/09 05:25:19;;;;;;;14.73;6.40;;;4.50;48.70;;;;;;5012905;28;20037;-74
2022/03/09 05:27:45;;;;;;;10.68;7.30;;;4.50;49.00;;;;;;5013092;28;20105;-73
2022/03/09 05:30:11;;;;;;;11.32;6.75;;;4.50;49.10;;;;;;5012775;28;20463;-72
2022/03/09 05:32:38;;;;;;;10.90;6.50;;;4.50;49.10;;;;;;5012640;28;20062;-71
2022/03/09 05:35:05;;;;;;;9.70;6.20;;;4.40;48.60;;;;;;5012517;28;20117;-73
2022/03/09 05:37:39;;;;;;;11.50;6.47;;;4.40;49.10;;;;;;5012399;28;20026;-72
2022/03/09 05:40:06;;;;;;;9.77;6.00;;;4.30;48.50;;;;;;4994809;28;20093;-71
2022/03/09 05:42:32;;;;;;;9.93;6.38;;;4.30;48.90;;;;;;5012452;28;20021;-70
2022/03/09 05:44:58;;;;;;;11.57;6.18;;;4.30;48.50;;;;;;5012651;28;20112;-71
2022/03/09 05:47:23;;;;;;;10.45;6.43;;;4.30;49.00;;;;;;5012318;28;20112;-73
2022/03/09 05:49:49;;;;;;;11.27;6.53;;;4.30;48.70;;;;;;5012478;28;20030;-71
2022/03/09 05:52:15;;;;;;;11.73;6.80;;;4.40;49.00;;;;;;5012547;28;20018;-70
2022/03/09 05:54:40;;;;;;;10.60;6.78;;;4.50;48.80;;;;;;5012661;28;20309;-71
2022/03/09 05:57:06;;;;;;;14.80;9.25;;;4.50;48.40;;;;;;5012502;28;20485;-72
2022/03/09 05:59:32;;;;;;;13.75;7.50;;;4.60;48.70;;;;;;5012468;28;20072;-71
2022/03/09 06:01:57;;;;;;;12.82;7.40;;;4.60;48.50;;;;;;5012467;28;20030;-71
2022/03/09 06:04:23;;;;;;;12.55;7.10;;;4.60;48.80;;;;;;5012941;28;20042;-71
2022/03/09 06:06:49;;;;;;;13.23;7.10;;;4.60;48.60;;;;;;5016552;28;20077;-72
2022/03/09 06:09:14;;;;;;;11.25;6.97;;;4.60;49.10;;;;;;5016362;28;20089;-72
2022/03/09 06:11:41;;;;;;;10.75;6.60;;;4.60;48.90;;;;;;5014899;28;20431;-72
2022/03/09 06:14:07;;;;;;;12.13;6.78;;;4.60;48.60;;;;;;5016367;28;20030;-71
2022/03/09 06:16:33;;;;;;;13.45;8.45;;;4.60;48.70;;;;;;5016223;28;20033;-71
2022/03/09 06:18:58;;;;;;;13.25;8.50;;;4.70;48.50;;;;;;5016086;28;20036;-71
2022/03/09 06:21:24;;;;;;;11.38;7.22;;;4.80;48.60;;;;;;5016357;28;20399;-73
2022/03/09 06:23:50;;;;;;;19.88;7.45;;;4.80;48.50;;;;;;4998756;28;20046;-72
2022/03/09 06:26:16;;;;;;;13.40;6.40;;;4.90;48.50;;;;;;5016087;28;20160;-71
2022/03/09 06:28:41;;;;;;;10.95;7.07;;;5.00;48.50;;;;;;5015925;28;20026;-74
2022/03/09 06:31:07;;;;;;;9.68;6.63;;;5.10;48.50;;;;;;5015997;28;20076;-71
2022/03/09 06:33:33;;;;;;;14.77;7.47;;;5.20;48.10;;;;;;5015751;28;20030;-71
2022/03/09 06:35:59;;;;;;;11.93;7.35;;;5.40;48.10;;;;;;5015772;28;20356;-72
2022/03/09 06:38:25;;;;;;;20.50;6.82;;;5.50;48.10;;;;;;4997603;28;20037;-72
2022/03/09 06:40:50;;;;;;;13.18;7.15;;;5.70;47.90;;;;;;5015123;28;20547;-70
2022/03/09 06:43:16;;;;;;;9.48;6.57;;;5.80;47.80;;;;;;5015168;28;20172;-72
2022/03/09 06:45:42;;;;;;;13.50;7.22;;;5.90;48.00;;;;;;5015260;28;20061;-74
2022/03/09 06:48:08;;;;;;;13.70;7.72;;;6.10;47.70;;;;;;5015138;28;20113;-73
2022/03/09 06:50:34;;;;;;;11.52;7.18;;;6.20;47.50;;;;;;5015456;28;20029;-71
2022/03/09 06:53:00;;;;;;;12.10;7.15;;;6.30;47.30;;;;;;5015204;28;20030;-74
2022/03/09 06:55:26;;;;;;;15.15;7.60;;;6.50;47.10;;;;;;5014509;28;20065;-73
2022/03/09 06:57:51;;;;;;;12.35;6.45;;;6.50;46.60;;;;;;5015034;28;20092;-72
2022/03/09 07:00:18;;;;;;;10.82;7.07;;;6.60;46.50;;;;;;5015159;28;20097;-72
2022/03/09 07:02:44;;;;;;;12.35;6.80;;;6.80;46.60;;;;;;5014958;28;20022;-73
2022/03/09 07:05:10;;;;;;;11.88;6.95;;;7.00;46.70;;;;;;5015591;28;20034;-75
2022/03/09 07:07:37;;;;;;;12.10;6.63;;;7.20;46.30;;;;;;5015629;28;20109;-74
2022/03/09 07:10:04;;;;;;;11.25;7.03;;;7.40;46.10;;;;;;5015090;28;20034;-71
2022/03/09 07:12:30;;;;;;;13.02;7.60;;;7.70;45.90;;;;;;5015216;28;20032;-75
2022/03/09 07:14:55;;;;;;;14.95;6.80;;;7.90;45.60;;;;;;5016910;28;20104;-77
2022/03/09 07:17:21;;;;;;;13.25;7.22;;;8.10;44.90;;;;;;4998447;28;20042;-75
2022/03/09 07:19:47;;;;;;;11.52;7.15;;;8.30;45.10;;;;;;5015206;28;20451;-74
2022/03/09 07:22:12;;;;;;;14.70;7.07;;;8.40;44.20;;;;;;4997717;28;20129;-73
2022/03/09 07:24:38;;;;;;;12.50;7.10;;;8.60;44.50;;;;;;5014606;28;20038;-73
2022/03/09 07:27:04;;;;;;;11.75;6.55;;;8.60;43.70;;;;;;5015058;28;20022;-73
2022/03/09 07:29:30;;;;;;;12.52;6.63;;;8.60;43.80;;;;;;5014401;28;20063;-71
2022/03/09 07:31:56;;;;;;;16.40;7.45;;;8.70;43.60;;;;;;5014724;28;20392;-70
2022/03/09 07:34:22;;;;;;;21.83;7.80;;;8.70;42.50;;;;;;4997354;28;20080;-70
2022/03/09 07:36:49;;;;;;;9.43;6.00;;;8.90;42.60;;;;;;5014821;28;20034;-70
2022/03/09 07:39:16;;;;;;;13.98;7.10;;;8.90;42.20;;;;;;5014642;28;20046;-72
2022/03/09 07:41:42;;;;;;;18.55;6.80;;;9.20;42.80;;;;;;5015208;28;20026;-69
2022/03/09 07:44:08;;;;;;;10.38;6.30;;;9.30;43.20;;;;;;4996898;28;20037;-71
2022/03/09 07:46:35;;;;;;;11.85;6.50;;;9.50;42.10;;;;;;4996979;28;20030;-73
2022/03/09 07:49:00;;;;;;;11.70;6.38;;;9.50;41.20;;;;;;5014841;28;20033;-71
2022/03/09 07:51:28;;;;;;;12.20;5.85;;;9.70;41.10;;;;;;5014537;28;20022;-71
2022/03/09 07:53:53;;;;;;;12.35;6.20;;;9.60;41.80;;;;;;5014429;28;20034;-69
2022/03/09 07:56:20;;;;;;;14.27;6.65;;;9.70;40.00;;;;;;5014595;28;20025;-75
2022/03/09 07:58:46;;;;;;;12.07;5.75;;;9.70;42.40;;;;;;5014449;28;20037;-71
2022/03/09 08:01:12;;;;;;;12.10;6.03;;;9.80;40.20;;;;;;5014769;28;20018;-71
2022/03/09 08:03:39;;;;;;;17.85;7.53;;;9.80;39.10;;;;;;5014224;28;20121;-71
2022/03/09 08:06:05;;;;;;;14.45;6.25;;;9.70;39.30;;;;;;5014744;28;20414;-69
2022/03/09 08:08:30;;;;;;;11.10;5.57;;;9.70;39.20;;;;;;5014086;28;20014;-72
2022/03/09 08:10:56;;;;;;;9.10;5.45;;;9.70;39.10;;;;;;5014540;28;20376;-71
2022/03/09 08:13:22;;;;;;;10.02;5.22;;;9.50;38.80;;;;;;5013768;28;20041;-72
2022/03/09 08:15:47;;;;;;;15.25;6.63;;;9.40;38.80;;;;;;4996691;28;20022;-71
2022/03/09 08:18:13;;;;;;;11.77;5.55;;;9.40;39.10;;;;;;5014122;28;20398;-70
2022/03/09 08:20:39;;;;;;;10.48;5.50;;;9.40;39.30;;;;;;5013870;28;20033;-72
2022/03/09 08:23:06;;;;;;;10.00;5.20;;;9.40;39.10;;;;;;5014154;28;20073;-73
2022/03/09 08:25:31;;;;;;;10.52;5.35;;;9.40;38.90;;;;;;5014682;28;20080;-73
2022/03/09 08:27:58;;;;;;;14.30;6.25;;;9.30;38.70;;;;;;4996520;28;20037;-73
2022/03/09 08:30:24;;;;;;;10.02;5.45;;;9.30;38.90;;;;;;5014614;28;20026;-75
2022/03/09 08:32:50;;;;;;;12.70;6.05;;;9.30;38.80;;;;;;5014436;28;20475;-70
2022/03/09 08:35:16;;;;;;;13.38;5.75;;;9.30;39.50;;;;;;5013769;28;20054;-71
2022/03/09 08:37:42;;;;;;;11.45;6.05;;;9.30;39.00;;;;;;5013742;28;20052;-76
2022/03/09 08:40:09;;;;;;;10.85;5.15;;;9.40;38.90;;;;;;5013876;28;20054;-77
2022/03/09 08:42:35;;;;;;;10.63;4.90;;;9.40;39.10;;;;;;5014358;28;20502;-75
2022/03/09 08:45:02;;;;;;;11.05;5.93;;;9.40;38.60;;;;;;5014461;28;20037;-78
2022/03/09 08:47:29;;;;;;;10.77;5.75;;;9.30;38.30;;;;;;5014203;28;20037;-79
2022/03/09 08:49:57;;;;;;;8.25;5.35;;;9.40;40.30;;;;;;5014259;28;20041;-78
2022/03/09 08:52:23;;;;;;;12.68;6.00;;;9.40;38.60;;;;;;5014348;28;20026;-76
2022/03/09 08:54:53;;;;;;;11.63;6.63;;;9.40;38.60;;;;;;5014275;28;20464;-78
2022/03/09 08:57:20;;;;;;;11.27;6.10;;;9.50;38.80;;;;;;4997438;28;20041;-76
2022/03/09 08:59:46;;;;;;;11.65;5.85;;;9.50;38.40;;;;;;4997565;28;20113;-78
2022/03/09 09:02:12;;;;;;;12.35;5.72;;;9.50;39.00;;;;;;5017681;28;20026;-76
2022/03/09 09:04:38;;;;;;;11.80;5.72;;;9.50;38.70;;;;;;5013962;28;20048;-79
2022/03/09 09:07:04;;;;;;;10.75;5.30;;;9.60;39.00;;;;;;5013828;28;20045;-74
2022/03/09 09:09:30;;;;;;;12.85;5.40;;;9.70;38.90;;;;;;5013377;28;20104;-72
2022/03/09 09:11:56;;;;;;;9.98;5.70;;;9.70;38.50;;;;;;4995844;28;20340;-77
2022/03/09 09:14:21;;;;;;;11.00;5.70;;;9.70;38.40;;;;;;4995863;28;20038;-74
2022/03/09 09:16:49;;;;;;;11.02;5.85;;;9.70;38.90;;;;;;5013327;28;20022;-71
2022/03/09 09:19:15;;;;;;;9.90;5.35;;;9.80;39.30;;;;;;5013059;28;20108;-71
2022/03/09 09:21:42;;;;;;;9.85;5.03;;;9.80;38.50;;;;;;5013251;28;20029;-70
2022/03/09 09:24:08;;;;;;;10.10;5.10;;;9.90;39.10;;;;;;5012905;28;20045;-72
2022/03/09 09:26:34;;;;;;;10.40;4.82;;;9.90;38.40;;;;;;5013018;28;20022;-73
2022/03/09 09:28:59;;;;;;;12.60;5.18;;;9.90;38.50;;;;;;5012725;28;20033;-71
2022/03/09 09:31:25;;;;;;;14.35;5.45;;;10.00;37.50;;;;;;5013011;28;20038;-71
2022/03/09 09:33:51;;;;;;;9.65;5.07;;;10.00;37.50;;;;;;5013118;28;20097;-71
2022/03/09 09:36:17;;;;;;;17.00;10.30;;;10.10;37.20;;;;;;5013194;28;20026;-71
2022/03/09 09:38:42;;;;;;;412.90;126.53;;;10.10;37.50;;;;;;5031004;22;20168;-66
2022/03/09 09:41:14;;;;;;;59.42;27.02;;;10.20;37.50;;;;;;5032677;28;20048;-66
2022/03/09 09:43:40;;;;;;;45.75;18.48;;;10.30;37.50;;;;;;5032490;28;20044;-64
2022/03/09 09:46:07;;;;;;;11.23;5.72;;;10.40;37.60;;;;;;5014660;28;20091;-64
2022/03/09 09:48:33;;;;;;;13.27;5.13;;;10.50;36.60;;;;;;5035288;28;20029;-64
2022/03/09 09:50:59;;;;;;;8.38;4.93;;;10.70;36.60;;;;;;5018969;28;20032;-65
2022/03/09 09:53:27;;;;;;;9.52;5.10;;;10.70;35.90;;;;;;5036464;28;20478;-63
2022/03/09 09:55:54;;;;;;;9.00;4.75;;;10.70;35.30;;;;;;5018940;28;20025;-65
2022/03/09 09:58:20;;;;;;;9.25;4.85;;;10.80;35.20;;;;;;5036598;28;20029;-65
2022/03/09 10:00:47;;;;;;;10.43;4.93;;;10.80;36.10;;;;;;5036286;28;20048;-68
2022/03/09 10:03:13;;;;;;;8.30;4.68;;;10.90;35.00;;;;;;5036363;28;20356;-64
2022/03/09 10:05:39;;;;;;;12.30;5.00;;;10.90;35.40;;;;;;5036146;28;20110;-64
2022/03/09 10:08:04;;;;;;;12.07;4.15;;;11.00;35.20;;;;;;5036003;28;20537;-63
2022/03/09 10:10:36;;;;;;;9.18;4.80;;;11.10;35.10;;;;;;5018102;28;20235;-64
2022/03/09 10:13:24;;;;;;;11.52;5.43;;;11.20;35.30;;;;;;5036200;28;20029;-69
2022/03/09 10:16:12;;;;;;;11.50;4.75;;;11.30;34.00;;;;;;5036335;28;20034;-64
2022/03/09 10:18:45;;;;;;;12.60;4.65;;;11.30;33.80;;;;;;5036096;28;20386;-63
2022/03/09 10:21:17;;;;;;;8.25;4.22;;;11.40;34.10;;;;;;5035752;28;20097;-65
2022/03/09 10:24:09;;;;;;;9.75;4.18;;;11.50;34.10;;;;;;5035917;28;20037;-64
2022/03/09 10:26:34;;;;;;;8.18;4.57;;;11.50;33.30;;;;;;5035710;28;20034;-66
2022/03/09 10:29:10;;;;;;;11.15;4.50;;;11.60;33.50;;;;;;5035728;28;20029;-66
2022/03/09 10:31:41;;;;;;;8.48;4.10;;;11.60;33.80;;;;;;5035483;28;20022;-65
2022/03/09 10:34:24;;;;;;;9.43;4.18;;;11.70;34.20;;;;;;5035797;28;20033;-64
2022/03/09 10:37:01;;;;;;;8.93;4.68;;;11.80;33.30;;;;;;5033461;28;20151;-63
2022/03/09 10:39:36;;;;;;;7.68;4.28;;;11.80;32.50;;;;;;5035137;28;20081;-64
2022/03/09 10:42:04;;;;;;;9.20;4.93;;;11.80;33.20;;;;;;5035363;28;20083;-64
2022/03/09 10:44:49;;;;;;;7.97;4.40;;;11.90;33.20;;;;;;5035381;28;20038;-64
2022/03/09 10:47:40;;;;;;;11.40;5.70;;;11.90;33.00;;;;;;5035232;28;20026;-64
2022/03/09 10:50:30;;;;;;;8.85;5.00;;;12.00;32.10;;;;;;5017080;28;20037;-64
2022/03/09 10:52:59;;;;;;;10.40;4.47;;;12.10;33.10;;;;;;5035104;28;20108;-63
2022/03/09 10:55:32;;;;;;;7.18;4.05;;;12.20;33.20;;;;;;5035147;28;20025;-66
2022/03/09 10:58:14;;;;;;;7.50;4.28;;;12.30;31.80;;;;;;5034993;28;20160;-63
2022/03/09 11:00:52;;;;;;;8.80;4.35;;;12.40;32.70;;;;;;5033988;28;20018;-65
2022/03/09 11:03:26;;;;;;;7.63;3.97;;;12.60;32.20;;;;;;5034970;28;20395;-64
2022/03/09 11:06:01;;;;;;;9.98;5.32;;;12.70;33.20;;;;;;5034835;28;20080;-65
2022/03/09 11:08:35;;;;;;;7.32;4.32;;;12.80;32.10;;;;;;5016721;28;20304;-65
2022/03/09 11:11:02;;;;;;;8.27;4.80;;;12.80;30.80;;;;;;5034724;28;20097;-64
2022/03/09 11:13:33;;;;;;;10.10;4.43;;;12.90;32.40;;;;;;5035061;28;20096;-65
2022/03/09 11:16:01;;;;;;;7.78;3.97;;;13.00;31.80;;;;;;5016965;28;20034;-66
2022/03/09 11:18:29;;;;;;;7.07;3.95;;;13.00;32.00;;;;;;5033783;28;20044;-63
2022/03/09 11:21:00;;;;;;;10.65;4.88;;;13.00;31.50;;;;;;5034819;28;20025;-65
2022/03/09 11:23:28;;;;;;;7.13;3.65;;;13.10;31.90;;;;;;5034651;28;20391;-64
2022/03/09 11:26:14;;;;;;;7.55;3.60;;;13.20;31.80;;;;;;5034723;28;20013;-64
2022/03/09 11:28:43;;;;;;;11.15;3.42;;;13.30;31.60;;;;;;5034163;28;20060;-67
2022/03/09 11:31:18;;;;;;;10.98;3.65;;;13.40;31.60;;;;;;5034756;28;20101;-66
2022/03/09 11:33:47;;;;;;;9.43;3.70;;;13.40;30.30;;;;;;5034330;28;20451;-65
2022/03/09 11:36:23;;;;;;;7.20;3.40;;;13.50;31.10;;;;;;5034815;28;20032;-71
2022/03/09 11:38:52;;;;;;;6.75;3.80;;;13.60;30.00;;;;;;5034533;28;20197;-69
2022/03/09 11:41:19;;;;;;;7.60;3.17;;;13.60;29.20;;;;;;5034327;28;20026;-65
2022/03/09 11:43:46;;;;;;;6.45;3.20;;;13.60;29.70;;;;;;5034037;28;20037;-64
2022/03/09 11:46:11;;;;;;;6.93;3.70;;;13.60;29.70;;;;;;5034360;28;20123;-65
2022/03/09 11:48:55;;;;;;;9.90;3.55;;;13.60;29.40;;;;;;5034299;28;20060;-64
2022/03/09 11:51:23;;;;;;;7.07;3.95;;;13.60;29.80;;;;;;5034389;28;20029;-68
2022/03/09 11:53:54;;;;;;;8.70;4.35;;;13.70;30.10;;;;;;5034612;28;20471;-67
2022/03/09 11:56:26;;;;;;;8.00;4.05;;;13.60;30.10;;;;;;5034171;28;20112;-64
2022/03/09 11:59:21;;;;;;;7.65;4.05;;;13.70;30.00;;;;;;5033899;28;20108;-64
2022/03/09 12:01:58;;;;;;;9.73;3.97;;;13.70;28.20;;;;;;5034149;28;20049;-67
2022/03/09 12:04:42;;;;;;;7.75;4.22;;;13.70;29.90;;;;;;5034079;28;20133;-63
2022/03/09 12:07:09;;;;;;;8.10;4.07;;;13.90;30.10;;;;;;5034357;28;20034;-65
2022/03/09 12:09:58;;;;;;;8.20;4.53;;;13.90;30.30;;;;;;5034145;28;20075;-64
2022/03/09 12:12:26;;;;;;;9.60;4.40;;;14.10;30.40;;;;;;5034066;28;20033;-65
2022/03/09 12:15:07;;;;;;;7.07;4.32;;;14.10;30.00;;;;;;5033969;28;20021;-67
2022/03/09 12:17:37;;;;;;;8.27;4.50;;;14.10;29.90;;;;;;5034576;28;20068;-81
2022/03/09 12:20:21;;;;;;;7.05;4.20;;;14.00;29.70;;;;;;5034451;28;20053;-70
2022/03/09 12:22:58;;;;;;;7.50;3.95;;;14.00;29.70;;;;;;5036716;28;20083;-81
2022/03/09 12:25:46;;;;;;;6.95;3.70;;;14.10;28.60;;;;;;5038394;28;20097;-75
2022/03/09 12:28:24;;;;;;;8.30;4.13;;;14.10;28.50;;;;;;5035059;28;20123;-64
2022/03/09 12:31:12;;;;;;;9.88;4.28;;;14.20;29.70;;;;;;5033666;28;20075;-65
2022/03/09 12:33:39;;;;;;;7.80;4.20;;;14.20;28.80;;;;;;5016594;28;20490;-64
2022/03/09 12:36:19;;;;;;;7.15;3.90;;;14.20;30.00;;;;;;5015601;28;20487;-67
2022/03/09 12:38:53;;;;;;;9.88;4.63;;;14.30;28.80;;;;;;5033653;28;20037;-74
2022/03/09 12:41:44;;;;;;;7.25;3.83;;;14.40;28.30;;;;;;5034459;28;20072;-78
2022/03/09 12:44:15;;;;;;;8.60;4.07;;;14.50;29.60;;;;;;5032593;28;20045;-83
2022/03/09 12:46:43;;;;;;;6.90;4.05;;;14.40;29.60;;;;;;5034685;28;20026;-80
2022/03/09 12:49:18;;;;;;;9.45;3.78;;;14.50;29.80;;;;;;5034270;28;20037;-78
2022/03/09 12:51:52;;;;;;;8.65;4.57;;;14.40;29.30;;;;;;5034008;28;20026;-79
2022/03/09 12:54:33;;;;;;;5.88;3.60;;;14.50;28.40;;;;;;5033906;28;20075;-66
2022/03/09 12:57:23;;;;;;;7.20;4.43;;;14.40;29.00;;;;;;5033513;28;20041;-66